Fort Abbas Weather



Fort Abbas's Current Weather

Temprature 10.85o clear sky

clear sky

Rain: 0 %

Min Temprature10.85o
Max Temprature10.85o
Humidity59
Wind Speed4.55 m/h
Sun Rise07:02:57
Sun Set17:34:35
Current Time: 18-Jan-2021 06:24:33
Lat/Lon: 29.1925, 72.8536




Fort Abbas's Geo Location



Fort Abbas's Weather Forecast

Time Overall Temp Min Temp Max Temp Humidity Wind Speed Rain
18-Jan-2021 (Mon)
08:00:00 clear sky 10.760 10.760 10.810 54 4.85 m/h 0 %
11:00:00 clear sky 16.450 16.450 18.030 40 3.91 m/h 0 %
14:00:00 clear sky 21.790 21.790 22.550 30 4.53 m/h 0 %
17:00:00 clear sky 20.950 20.950 21.030 30 4.03 m/h 0 %
20:00:00 clear sky 16.630 16.630 16.630 37 4.29 m/h 0 %
23:00:00 clear sky 14.680 14.680 14.680 39 4.18 m/h 0 %
19-Jan-2021 (Tue)
02:00:00 clear sky 12.920 12.920 12.920 43 3.82 m/h 0 %
05:00:00 clear sky 11.440 11.440 11.440 49 3.13 m/h 0 %
08:00:00 clear sky 11.960 11.960 11.960 49 3 m/h 0 %
11:00:00 clear sky 18.450 18.450 18.450 32 1.6 m/h 0 %
14:00:00 clear sky 22.420 22.420 22.420 21 1.74 m/h 0 %
17:00:00 clear sky 20.660 20.660 20.660 24 1.6 m/h 0 %
20:00:00 clear sky 15.500 15.500 15.500 32 0.76 m/h 0 %
23:00:00 clear sky 14.100 14.100 14.100 35 0.58 m/h 0 %
20-Jan-2021 (Wed)
02:00:00 clear sky 14.150 14.150 14.150 34 2.6 m/h 0 %
05:00:00 clear sky 13.080 13.080 13.080 37 2.41 m/h 0 %
08:00:00 clear sky 13.510 13.510 13.510 37 1.82 m/h 0 %
11:00:00 clear sky 20.660 20.660 20.660 23 0.88 m/h 0 %
14:00:00 clear sky 24.370 24.370 24.370 18 2.79 m/h 0 %
17:00:00 clear sky 22.070 22.070 22.070 21 2.06 m/h 0 %
20:00:00 few clouds 17.220 17.220 17.220 28 1.58 m/h 0 %
23:00:00 few clouds 15.090 15.090 15.090 32 0.92 m/h 0 %
21-Jan-2021 (Thu)
02:00:00 clear sky 14.660 14.660 14.660 32 1.89 m/h 0 %
05:00:00 clear sky 12.900 12.900 12.900 36 1.27 m/h 0 %
08:00:00 clear sky 14.450 14.450 14.450 35 0.37 m/h 0 %
11:00:00 clear sky 22.990 22.990 22.990 19 2.01 m/h 0 %
14:00:00 clear sky 26.300 26.300 26.300 16 2.87 m/h 0 %
17:00:00 clear sky 22.650 22.650 22.650 21 0.86 m/h 0 %
20:00:00 clear sky 19.810 19.810 19.810 23 2.51 m/h 0 %
23:00:00 clear sky 19.090 19.090 19.090 24 3.28 m/h 0 %
22-Jan-2021 (Fri)
02:00:00 clear sky 17.980 17.980 17.980 25 3.65 m/h 0 %
05:00:00 clear sky 16.040 16.040 16.040 29 3.53 m/h 0 %
08:00:00 clear sky 16.680 16.680 16.680 28 3.57 m/h 0 %
11:00:00 clear sky 24.470 24.470 24.470 17 4.04 m/h 0 %
14:00:00 clear sky 28.300 28.300 28.300 14 4.06 m/h 0 %
17:00:00 clear sky 25.340 25.340 25.340 17 2.11 m/h 0 %
20:00:00 broken clouds 22.420 22.420 22.420 20 3.81 m/h 0 %
23:00:00 scattered clouds 19.370 19.370 19.370 24 4.57 m/h 0 %
23-Jan-2021 (Sat)
02:00:00 clear sky 17.770 17.770 17.770 29 2.81 m/h 0 %
05:00:00 clear sky 16.350 16.350 16.350 32 3.01 m/h 0 %

Famous Cities (60)